createdAt,value
2018-12-29T00:00:17.910Z,28.70
2018-12-29T00:01:17.823Z,29.90
2018-12-29T00:02:17.737Z,28.10
2018-12-29T00:03:17.648Z,28.60
2018-12-29T00:04:17.573Z,28.20
2018-12-29T00:05:17.737Z,28.30
2018-12-29T00:06:17.399Z,29.80
2018-12-29T00:07:17.311Z,28.90
2018-12-29T00:08:17.236Z,28.00
2018-12-29T00:09:17.149Z,28.60
2018-12-29T00:10:17.061Z,28.60
2018-12-29T00:11:16.975Z,29.70
2018-12-29T00:12:16.887Z,29.10
2018-12-29T00:13:16.812Z,29.70
2018-12-29T00:14:16.725Z,30.20
2018-12-29T00:15:16.651Z,29.70
2018-12-29T00:16:16.549Z,28.30
2018-12-29T00:17:16.464Z,29.50
2018-12-29T00:18:16.387Z,26.70
2018-12-29T00:19:16.300Z,27.70
2018-12-29T00:20:16.213Z,26.40
2018-12-29T00:21:16.126Z,28.30
2018-12-29T00:22:16.050Z,26.60
2018-12-29T00:23:15.963Z,26.90
2018-12-29T00:24:15.878Z,27.60
2018-12-29T00:25:15.788Z,27.40
2018-12-29T00:26:15.702Z,27.70
2018-12-29T00:27:15.628Z,28.10
2018-12-29T00:28:15.538Z,29.10
2018-12-29T00:29:15.452Z,28.00
2018-12-29T00:30:15.364Z,30.40
2018-12-29T00:31:15.277Z,28.70
2018-12-29T00:32:15.202Z,28.60
2018-12-29T00:33:15.115Z,29.70
2018-12-29T00:34:15.027Z,28.40
2018-12-29T00:35:14.939Z,27.50
2018-12-29T00:36:14.865Z,28.70
2018-12-29T00:37:14.778Z,29.50
2018-12-29T00:38:14.705Z,29.20
2018-12-29T00:39:14.605Z,28.30
2018-12-29T00:40:14.515Z,27.70
2018-12-29T00:41:14.443Z,27.50
2018-12-29T00:42:14.354Z,28.80
2018-12-29T00:43:14.265Z,28.80
2018-12-29T00:44:14.178Z,29.10
2018-12-29T00:45:14.092Z,28.50
2018-12-29T00:46:14.016Z,29.10
2018-12-29T00:47:13.929Z,28.40
2018-12-29T00:48:13.841Z,29.60
2018-12-29T00:49:13.754Z,28.30
2018-12-29T00:50:13.685Z,29.40
2018-12-29T00:51:13.592Z,31.00
2018-12-29T00:52:13.504Z,31.00
2018-12-29T00:53:13.416Z,29.10
2018-12-29T00:54:13.330Z,29.90
2018-12-29T00:55:13.254Z,29.30
2018-12-29T00:56:13.167Z,29.30
2018-12-29T00:57:13.083Z,31.00
2018-12-29T00:58:12.992Z,29.50
2018-12-29T00:59:12.906Z,29.50
2018-12-29T01:00:12.833Z,28.50
2018-12-29T01:01:12.746Z,30.10
2018-12-29T01:02:12.655Z,29.20
2018-12-29T01:03:12.568Z,30.70
2018-12-29T01:04:12.493Z,29.60
2018-12-29T01:05:12.406Z,30.70
2018-12-29T01:06:12.321Z,29.40
2018-12-29T01:07:12.242Z,30.70
2018-12-29T01:08:12.143Z,30.70
2018-12-29T01:09:12.082Z,30.50
2018-12-29T01:10:12.283Z,30.60
2018-12-29T01:11:11.894Z,31.20
2018-12-29T01:12:11.806Z,31.60
2018-12-29T01:13:11.720Z,31.40
2018-12-29T01:14:11.644Z,31.00
2018-12-29T01:15:11.557Z,30.50
2018-12-29T01:16:11.469Z,31.30
2018-12-29T01:17:11.384Z,32.10
2018-12-29T01:18:11.308Z,30.70
2018-12-29T01:19:11.221Z,32.00
2018-12-29T01:20:11.134Z,32.50
2018-12-29T01:21:11.045Z,32.20
2018-12-29T01:22:10.962Z,32.00
2018-12-29T01:23:10.883Z,30.90
2018-12-29T01:24:10.795Z,32.40
2018-12-29T01:25:10.709Z,32.00
2018-12-29T01:26:10.622Z,32.10
2018-12-29T01:27:10.545Z,31.90
2018-12-29T01:28:10.458Z,33.40
2018-12-29T01:29:10.371Z,32.50
2018-12-29T01:30:10.284Z,33.00
2018-12-29T01:31:10.196Z,32.10
2018-12-29T01:32:10.122Z,32.60
2018-12-29T01:33:10.035Z,32.80
2018-12-29T01:34:09.950Z,32.50
2018-12-29T01:35:09.860Z,33.90
2018-12-29T01:36:09.773Z,32.40
2018-12-29T01:37:09.696Z,32.50
2018-12-29T01:38:09.609Z,33.50
2018-12-29T01:39:09.523Z,34.10
2018-12-29T01:40:09.435Z,33.40
2018-12-29T01:41:09.361Z,34.10
2018-12-29T01:42:09.272Z,34.00
2018-12-29T01:43:09.185Z,34.00
2018-12-29T01:44:09.097Z,33.90
2018-12-29T01:45:09.022Z,33.90
2018-12-29T01:46:08.935Z,35.80
2018-12-29T01:47:08.850Z,34.90
2018-12-29T01:48:08.761Z,33.80
2018-12-29T01:49:08.674Z,35.10
2018-12-29T01:50:08.599Z,34.50
2018-12-29T01:51:08.511Z,35.30
2018-12-29T01:52:08.423Z,35.20
2018-12-29T01:53:08.337Z,35.40
2018-12-29T01:54:08.263Z,35.80
2018-12-29T01:55:08.176Z,35.70
2018-12-29T01:56:08.089Z,35.80
2018-12-29T01:57:07.999Z,37.70
2018-12-29T01:58:07.912Z,35.30
2018-12-29T01:59:07.840Z,35.30
2018-12-29T02:00:08.000Z,37.40
2018-12-29T02:01:07.663Z,35.50
2018-12-29T02:02:07.578Z,35.40
2018-12-29T02:03:07.488Z,36.30
2018-12-29T02:04:07.413Z,35.40
2018-12-29T02:05:07.324Z,35.60
2018-12-29T02:06:07.241Z,35.80
2018-12-29T02:07:07.163Z,35.60
2018-12-29T02:08:07.064Z,35.20
2018-12-29T02:09:06.988Z,36.60
2018-12-29T02:10:06.902Z,35.50
2018-12-29T02:11:06.814Z,35.70
2018-12-29T02:12:06.726Z,35.60
2018-12-29T02:13:06.651Z,35.40
2018-12-29T02:14:06.565Z,37.30
2018-12-29T02:15:06.477Z,35.30
2018-12-29T02:16:06.390Z,34.90
2018-12-29T02:17:06.315Z,35.50
2018-12-29T02:18:06.226Z,34.10
2018-12-29T02:19:06.145Z,35.10
2018-12-29T02:20:06.052Z,34.10
2018-12-29T02:21:05.964Z,34.20
2018-12-29T02:22:05.889Z,33.70
2018-12-29T02:23:05.803Z,33.60
2018-12-29T02:24:05.716Z,33.30
2018-12-29T02:25:05.927Z,36.10
2018-12-29T02:26:05.541Z,34.50
2018-12-29T02:27:05.465Z,34.50
2018-12-29T02:28:05.377Z,34.80
2018-12-29T02:29:05.292Z,34.90
2018-12-29T02:30:05.218Z,34.50
2018-12-29T02:31:05.130Z,33.20
2018-12-29T02:32:05.045Z,32.40
2018-12-29T02:33:04.957Z,35.00
2018-12-29T02:34:04.866Z,34.50
2018-12-29T02:35:04.778Z,33.10
2018-12-29T02:36:04.715Z,33.70
2018-12-29T02:37:04.617Z,32.80
2018-12-29T02:38:04.528Z,35.00
2018-12-29T02:39:04.448Z,34.90
2018-12-29T02:40:04.355Z,32.30
2018-12-29T02:41:04.278Z,33.80
2018-12-29T02:42:04.192Z,33.80
2018-12-29T02:43:04.118Z,32.40
2018-12-29T02:44:04.017Z,32.70
2018-12-29T02:45:03.948Z,34.20
2018-12-29T02:46:03.854Z,36.50
2018-12-29T02:47:03.770Z,34.60
2018-12-29T02:48:03.678Z,33.50
2018-12-29T02:49:03.593Z,33.50
2018-12-29T02:50:03.518Z,32.80
2018-12-29T02:51:03.430Z,32.60
2018-12-29T02:52:03.349Z,34.20
2018-12-29T02:53:03.270Z,33.80
2018-12-29T02:54:03.181Z,33.10
2018-12-29T02:55:03.092Z,33.20
2018-12-29T02:56:03.063Z,33.60
2018-12-29T02:57:02.920Z,32.70
2018-12-29T02:58:02.831Z,32.40
2018-12-29T02:59:02.755Z,32.40
2018-12-29T03:00:02.676Z,32.90
2018-12-29T03:01:02.583Z,33.40
2018-12-29T03:02:02.496Z,34.30
2018-12-29T03:03:02.408Z,34.10
2018-12-29T03:04:02.331Z,33.20
2018-12-29T03:05:02.243Z,32.10
2018-12-29T03:06:02.157Z,32.60
2018-12-29T03:07:02.069Z,32.50
2018-12-29T03:08:01.996Z,31.80
2018-12-29T03:09:01.908Z,32.30
2018-12-29T03:10:01.832Z,32.70
2018-12-29T03:11:01.773Z,32.50
2018-12-29T03:12:01.656Z,32.90
2018-12-29T03:13:01.570Z,31.80
2018-12-29T03:14:01.483Z,32.00
2018-12-29T03:15:01.399Z,31.50
2018-12-29T03:16:01.307Z,31.60
2018-12-29T03:17:01.232Z,31.10
2018-12-29T03:18:01.146Z,31.60
2018-12-29T03:19:01.059Z,31.70
2018-12-29T03:20:00.971Z,32.00
2018-12-29T03:21:00.886Z,32.10
2018-12-29T03:22:00.808Z,31.30
2018-12-29T03:23:00.721Z,31.00
2018-12-29T03:24:00.633Z,31.30
2018-12-29T03:25:00.549Z,30.50
2018-12-29T03:26:00.473Z,30.60
2018-12-29T03:27:00.385Z,30.30
2018-12-29T03:28:00.297Z,30.10
2018-12-29T03:29:00.210Z,30.60
2018-12-29T03:30:00.228Z,31.70
2018-12-29T03:31:00.049Z,31.40
2018-12-29T03:31:59.980Z,30.60
2018-12-29T03:32:59.876Z,32.30
2018-12-29T03:33:59.784Z,31.90
2018-12-29T03:35:00.011Z,31.80
2018-12-29T03:35:59.638Z,32.20
2018-12-29T03:36:59.534Z,31.60
2018-12-29T03:37:59.448Z,31.80
2018-12-29T03:38:59.374Z,30.60
2018-12-29T03:39:59.285Z,31.70
2018-12-29T03:40:59.197Z,30.70
2018-12-29T03:41:59.111Z,31.80
2018-12-29T03:42:59.035Z,29.90
2018-12-29T03:43:58.950Z,31.60
2018-12-29T03:44:58.874Z,31.30
2018-12-29T03:45:58.774Z,31.50
2018-12-29T03:46:58.690Z,32.90
2018-12-29T03:47:58.600Z,31.40
2018-12-29T03:48:58.524Z,31.60
2018-12-29T03:49:58.436Z,32.50
2018-12-29T03:50:58.349Z,30.80
2018-12-29T03:51:58.261Z,31.90
2018-12-29T03:52:58.188Z,31.80
2018-12-29T03:53:58.100Z,30.30
2018-12-29T03:54:58.012Z,32.60
2018-12-29T03:55:57.925Z,30.60
2018-12-29T03:56:57.838Z,31.10
2018-12-29T03:57:57.763Z,31.70
2018-12-29T03:58:57.677Z,30.80
2018-12-29T03:59:57.939Z,31.90
2018-12-29T04:00:57.502Z,32.30
2018-12-29T04:01:57.426Z,31.00
2018-12-29T04:02:57.337Z,30.70
2018-12-29T04:03:57.254Z,32.00
2018-12-29T04:04:57.163Z,31.20
2018-12-29T04:05:57.089Z,32.60
2018-12-29T04:06:57.001Z,31.80
2018-12-29T04:07:56.912Z,32.70
2018-12-29T04:08:56.827Z,33.00
2018-12-29T04:09:56.989Z,31.70
2018-12-29T04:10:56.679Z,32.30
2018-12-29T04:11:56.584Z,32.10
2018-12-29T04:12:56.488Z,32.10
2018-12-29T04:13:56.401Z,32.00
2018-12-29T04:14:56.314Z,32.00
2018-12-29T04:15:58.246Z,32.30
2018-12-29T04:16:56.158Z,31.90
2018-12-29T04:17:56.066Z,33.20
2018-12-29T04:18:55.977Z,33.20
2018-12-29T04:19:55.892Z,32.30
2018-12-29T04:20:55.815Z,32.00
2018-12-29T04:21:55.728Z,33.90
2018-12-29T04:22:55.640Z,34.40
2018-12-29T04:23:55.558Z,32.60
2018-12-29T04:24:55.778Z,32.90
2018-12-29T04:25:55.389Z,31.70
2018-12-29T04:26:55.304Z,33.30
2018-12-29T04:27:55.228Z,32.80
2018-12-29T04:28:55.142Z,32.70
2018-12-29T04:29:55.058Z,33.30
2018-12-29T04:30:54.977Z,32.80
2018-12-29T04:31:54.879Z,34.20
2018-12-29T04:32:54.791Z,33.30
2018-12-29T04:33:54.717Z,32.50
2018-12-29T04:34:54.629Z,33.90
2018-12-29T04:35:54.541Z,32.90
2018-12-29T04:36:54.455Z,32.50
2018-12-29T04:37:54.367Z,33.90
2018-12-29T04:38:54.291Z,32.30
2018-12-29T04:39:54.205Z,33.20
2018-12-29T04:40:54.117Z,33.50
2018-12-29T04:41:54.032Z,33.90
2018-12-29T04:42:53.954Z,34.00
2018-12-29T04:43:53.867Z,34.10
2018-12-29T04:44:54.030Z,33.10
2018-12-29T04:45:53.692Z,34.00
2018-12-29T04:46:53.618Z,34.50
2018-12-29T04:47:53.530Z,34.20
2018-12-29T04:48:53.444Z,33.30
2018-12-29T04:49:53.356Z,34.40
2018-12-29T04:50:53.268Z,33.40
2018-12-29T04:51:53.185Z,34.90
2018-12-29T04:52:53.107Z,33.90
2018-12-29T04:53:53.022Z,33.50
2018-12-29T04:54:52.933Z,33.90
2018-12-29T04:55:52.844Z,32.30
2018-12-29T04:56:52.768Z,33.70
2018-12-29T04:57:52.682Z,32.60
2018-12-29T04:58:52.595Z,33.20
2018-12-29T04:59:52.857Z,32.50
2018-12-29T05:00:52.420Z,33.70
2018-12-29T05:01:52.343Z,35.60
2018-12-29T05:02:52.260Z,33.40
2018-12-29T05:03:52.169Z,34.70
2018-12-29T05:04:52.083Z,34.10
2018-12-29T05:05:52.007Z,34.50
2018-12-29T05:06:51.919Z,34.10
2018-12-29T05:07:51.836Z,33.40
2018-12-29T05:08:51.748Z,32.30
2018-12-29T05:09:51.659Z,33.60
2018-12-29T05:10:51.583Z,33.30
2018-12-29T05:11:51.494Z,33.00
2018-12-29T05:12:51.408Z,32.40
2018-12-29T05:13:51.320Z,31.30
2018-12-29T05:14:51.246Z,32.60
2018-12-29T05:15:51.158Z,33.70
2018-12-29T05:16:51.070Z,33.30
2018-12-29T05:17:50.985Z,32.20
2018-12-29T05:18:50.896Z,33.10
2018-12-29T05:19:50.821Z,32.00
2018-12-29T05:20:50.734Z,33.20
2018-12-29T05:21:50.648Z,33.10
2018-12-29T05:22:50.560Z,33.70
2018-12-29T05:23:50.484Z,33.20
2018-12-29T05:24:50.396Z,33.10
2018-12-29T05:25:50.310Z,31.80
2018-12-29T05:26:50.222Z,32.60
2018-12-29T05:27:50.134Z,32.40
2018-12-29T05:28:50.062Z,33.30
2018-12-29T05:29:49.972Z,33.00
2018-12-29T05:30:49.885Z,34.50
2018-12-29T05:31:49.799Z,33.70
2018-12-29T05:32:49.722Z,33.40
2018-12-29T05:33:49.642Z,33.80
2018-12-29T05:34:49.898Z,35.40
2018-12-29T05:35:49.460Z,34.50
2018-12-29T05:36:49.374Z,35.00
2018-12-29T05:37:49.299Z,35.10
2018-12-29T05:38:49.214Z,32.90
2018-12-29T05:39:49.123Z,34.10
2018-12-29T05:40:49.038Z,33.30
2018-12-29T05:41:48.962Z,33.80
2018-12-29T05:42:48.873Z,35.50
2018-12-29T05:43:48.787Z,33.70
2018-12-29T05:44:48.948Z,33.60
2018-12-29T05:45:48.624Z,33.10
2018-12-29T05:46:48.538Z,32.90
2018-12-29T05:47:48.449Z,33.60
2018-12-29T05:48:48.362Z,32.10
2018-12-29T05:49:48.276Z,34.20
2018-12-29T05:50:48.212Z,33.40
2018-12-29T05:51:48.112Z,33.30
2018-12-29T05:52:48.024Z,33.20
2018-12-29T05:53:47.938Z,34.00
2018-12-29T05:54:47.851Z,32.70
2018-12-29T05:55:47.775Z,33.10
2018-12-29T05:56:47.688Z,33.00
2018-12-29T05:57:47.601Z,33.60
2018-12-29T05:58:47.541Z,32.30
2018-12-29T05:59:47.440Z,32.30
2018-12-29T06:00:47.350Z,31.30
2018-12-29T06:01:47.264Z,32.50
2018-12-29T06:02:47.176Z,32.90
2018-12-29T06:03:47.100Z,31.80
2018-12-29T06:04:47.015Z,31.10
2018-12-29T06:05:46.926Z,32.40
2018-12-29T06:06:46.839Z,31.40
2018-12-29T06:07:46.752Z,30.70
2018-12-29T06:08:46.689Z,31.90
2018-12-29T06:09:46.589Z,31.30
2018-12-29T06:10:46.502Z,33.10
2018-12-29T06:11:46.418Z,32.90
2018-12-29T06:12:46.340Z,30.80
2018-12-29T06:13:46.253Z,31.00
2018-12-29T06:14:46.166Z,30.40
2018-12-29T06:15:46.090Z,31.40
2018-12-29T06:16:46.002Z,31.00
2018-12-29T06:17:45.916Z,30.80
2018-12-29T06:18:45.828Z,30.80
2018-12-29T06:19:45.743Z,30.90
2018-12-29T06:20:45.656Z,31.80
2018-12-29T06:21:45.577Z,31.80
2018-12-29T06:22:45.490Z,31.60
2018-12-29T06:23:45.402Z,31.90
2018-12-29T06:24:45.316Z,33.00
2018-12-29T06:25:45.241Z,31.90
2018-12-29T06:26:45.153Z,32.90
2018-12-29T06:27:45.066Z,31.80
2018-12-29T06:28:44.980Z,32.70
2018-12-29T06:29:44.891Z,34.10
2018-12-29T06:30:44.816Z,32.90
2018-12-29T06:31:44.729Z,32.20
2018-12-29T06:32:44.641Z,32.90
2018-12-29T06:33:44.554Z,32.10
2018-12-29T06:34:44.718Z,32.60
2018-12-29T06:35:44.392Z,32.50
2018-12-29T06:36:44.304Z,33.40
2018-12-29T06:37:44.217Z,32.10
2018-12-29T06:38:44.129Z,31.80
2018-12-29T06:39:44.067Z,32.10
2018-12-29T06:40:43.969Z,31.60
2018-12-29T06:41:43.880Z,32.40
2018-12-29T06:42:43.799Z,32.10
2018-12-29T06:43:43.706Z,31.50
2018-12-29T06:44:43.629Z,33.00
2018-12-29T06:45:43.544Z,32.40
2018-12-29T06:46:43.468Z,32.00
2018-12-29T06:47:43.372Z,32.20
2018-12-29T06:48:43.283Z,32.30
2018-12-29T06:49:43.205Z,32.70
2018-12-29T06:50:43.119Z,32.20
2018-12-29T06:51:43.031Z,32.40
2018-12-29T06:52:42.944Z,31.80
2018-12-29T06:53:42.871Z,33.10
2018-12-29T06:54:42.781Z,31.20
2018-12-29T06:55:42.699Z,31.20
2018-12-29T06:56:42.607Z,31.00
2018-12-29T06:57:42.522Z,31.80
2018-12-29T06:58:42.446Z,31.00
2018-12-29T06:59:42.369Z,30.90
2018-12-29T07:00:42.269Z,32.00
2018-12-29T07:01:42.182Z,30.80
2018-12-29T07:02:42.103Z,31.10
2018-12-29T07:03:42.020Z,31.30
2018-12-29T07:04:42.182Z,30.20
2018-12-29T07:05:41.846Z,31.60
2018-12-29T07:06:41.757Z,31.50
2018-12-29T07:07:41.682Z,31.90
2018-12-29T07:08:41.660Z,31.30
2018-12-29T07:09:41.507Z,31.20
2018-12-29T07:10:41.423Z,31.90
2018-12-29T07:11:41.334Z,30.60
2018-12-29T07:12:41.258Z,32.10
2018-12-29T07:13:41.172Z,32.10
2018-12-29T07:14:41.083Z,32.00
2018-12-29T07:15:41.037Z,31.10
2018-12-29T07:16:42.372Z,32.00
2018-12-29T07:17:40.834Z,32.20
2018-12-29T07:18:40.747Z,31.60
2018-12-29T07:19:40.659Z,31.20
2018-12-29T07:20:40.574Z,31.20
2018-12-29T07:21:40.497Z,31.80
2018-12-29T07:22:40.410Z,31.80
2018-12-29T07:23:40.322Z,30.60
2018-12-29T07:24:40.234Z,30.50
2018-12-29T07:25:40.148Z,31.40
2018-12-29T07:26:40.074Z,31.00
2018-12-29T07:27:39.984Z,31.50
2018-12-29T07:28:39.899Z,31.50
2018-12-29T07:29:39.810Z,30.50
2018-12-29T07:30:39.724Z,30.10
2018-12-29T07:31:39.648Z,31.20
2018-12-29T07:32:39.560Z,30.80
2018-12-29T07:33:39.474Z,31.30
2018-12-29T07:34:39.385Z,30.10
2018-12-29T07:35:39.311Z,29.80
2018-12-29T07:36:39.224Z,29.50
2018-12-29T07:37:39.135Z,30.70
2018-12-29T07:38:39.049Z,29.70
2018-12-29T07:39:38.962Z,29.50
2018-12-29T07:40:38.886Z,30.60
2018-12-29T07:41:38.800Z,29.50
2018-12-29T07:42:38.712Z,30.20
2018-12-29T07:43:38.624Z,29.70
2018-12-29T07:44:38.788Z,29.30
2018-12-29T07:45:38.462Z,29.90
2018-12-29T07:46:38.374Z,28.60
2018-12-29T07:47:38.287Z,28.90
2018-12-29T07:48:38.200Z,28.20
2018-12-29T07:49:38.125Z,28.40
2018-12-29T07:50:38.038Z,29.00
2018-12-29T07:51:37.951Z,29.60
2018-12-29T07:52:37.862Z,28.70
2018-12-29T07:53:37.776Z,28.60
2018-12-29T07:54:37.703Z,28.60
2018-12-29T07:55:37.617Z,28.30
2018-12-29T07:56:37.526Z,28.20
2018-12-29T07:57:37.437Z,27.60
2018-12-29T07:58:37.352Z,26.20
2018-12-29T07:59:37.278Z,27.40
2018-12-29T08:00:37.187Z,27.30
2018-12-29T08:01:37.102Z,27.50
2018-12-29T08:02:37.013Z,28.30
2018-12-29T08:03:36.939Z,27.20
2018-12-29T08:04:36.851Z,27.00
2018-12-29T08:05:36.766Z,27.60
2018-12-29T08:06:36.677Z,28.40
2018-12-29T08:07:36.589Z,27.40
2018-12-29T08:08:36.515Z,26.70
2018-12-29T08:09:36.427Z,26.90
2018-12-29T08:10:36.339Z,27.20
2018-12-29T08:11:36.252Z,27.20
2018-12-29T08:12:36.177Z,27.70
2018-12-29T08:13:36.090Z,26.90
2018-12-29T08:14:36.003Z,27.00
2018-12-29T08:15:35.914Z,27.80
2018-12-29T08:16:35.827Z,27.50
2018-12-29T08:17:35.752Z,27.30
2018-12-29T08:18:35.677Z,27.20
2018-12-29T08:19:35.831Z,27.30
2018-12-29T08:20:35.492Z,27.80
2018-12-29T08:21:35.406Z,28.00
2018-12-29T08:22:35.328Z,26.70
2018-12-29T08:23:35.244Z,27.40
2018-12-29T08:24:35.160Z,27.40
2018-12-29T08:25:35.068Z,26.80
2018-12-29T08:26:34.990Z,27.30
2018-12-29T08:27:34.903Z,27.40
2018-12-29T08:28:34.816Z,27.40
2018-12-29T08:29:34.729Z,27.70
2018-12-29T08:30:34.643Z,26.80
2018-12-29T08:31:34.567Z,27.20
2018-12-29T08:32:34.481Z,26.60
2018-12-29T08:33:34.404Z,27.80
2018-12-29T08:34:34.307Z,27.50
2018-12-29T08:35:34.218Z,27.40
2018-12-29T08:36:34.142Z,26.90
2018-12-29T08:37:34.055Z,27.80
2018-12-29T08:38:33.968Z,27.80
2018-12-29T08:39:34.129Z,26.20
2018-12-29T08:40:33.804Z,26.80
2018-12-29T08:41:33.718Z,27.70
2018-12-29T08:42:33.631Z,28.00
2018-12-29T08:43:33.557Z,27.30
2018-12-29T08:44:33.455Z,26.60
2018-12-29T08:45:33.389Z,26.30
2018-12-29T08:46:33.297Z,27.00
2018-12-29T08:47:33.206Z,27.40
2018-12-29T08:48:33.117Z,27.40
2018-12-29T08:49:33.055Z,26.00
2018-12-29T08:50:32.956Z,26.00
2018-12-29T08:51:32.868Z,27.70
2018-12-29T08:52:32.783Z,28.70
2018-12-29T08:53:32.694Z,27.40
2018-12-29T08:54:32.619Z,27.70
2018-12-29T08:55:32.532Z,27.70
2018-12-29T08:56:32.460Z,27.00
2018-12-29T08:57:32.356Z,27.80
2018-12-29T08:58:32.272Z,28.40
2018-12-29T08:59:32.194Z,28.20
2018-12-29T09:00:32.107Z,28.80
2018-12-29T09:01:32.021Z,27.90
2018-12-29T09:02:31.933Z,28.10
2018-12-29T09:03:31.858Z,29.00
2018-12-29T09:04:31.770Z,28.10
2018-12-29T09:05:31.687Z,28.20
2018-12-29T09:06:31.595Z,27.10
2018-12-29T09:07:31.519Z,28.60
2018-12-29T09:08:31.432Z,29.00
2018-12-29T09:09:31.358Z,29.00
2018-12-29T09:10:31.262Z,30.70
2018-12-29T09:11:31.171Z,29.80
2018-12-29T09:12:31.096Z,29.90
2018-12-29T09:13:31.009Z,30.50
2018-12-29T09:14:30.921Z,29.90
2018-12-29T09:15:30.836Z,29.50
2018-12-29T09:16:30.759Z,31.00
2018-12-29T09:17:30.675Z,30.20
2018-12-29T09:18:30.590Z,31.00
2018-12-29T09:19:30.496Z,30.20
2018-12-29T09:20:30.409Z,30.00
2018-12-29T09:21:30.369Z,29.20
2018-12-29T09:22:30.247Z,29.90
2018-12-29T09:23:30.160Z,28.90
2018-12-29T09:24:30.072Z,30.40
2018-12-29T09:25:29.996Z,31.00
2018-12-29T09:26:29.910Z,29.90
2018-12-29T09:27:29.822Z,32.00
2018-12-29T09:28:29.736Z,30.70
2018-12-29T09:29:29.647Z,31.40
2018-12-29T09:30:29.574Z,32.40
2018-12-29T09:31:29.486Z,30.80
2018-12-29T09:32:29.398Z,29.00
2018-12-29T09:33:29.311Z,29.90
2018-12-29T09:34:29.223Z,28.40
2018-12-29T09:35:29.148Z,27.00
2018-12-29T09:36:29.063Z,29.50
2018-12-29T09:37:28.974Z,28.40
2018-12-29T09:38:28.887Z,27.80
2018-12-29T09:39:28.800Z,28.80
2018-12-29T09:40:28.724Z,29.40
2018-12-29T09:41:28.641Z,31.00
2018-12-29T09:42:28.549Z,27.80
2018-12-29T09:43:28.461Z,27.90
2018-12-29T09:44:28.392Z,27.80
2018-12-29T09:45:28.298Z,27.50
2018-12-29T09:46:28.212Z,28.70
2018-12-29T09:47:28.124Z,28.00
2018-12-29T09:48:28.048Z,28.30
2018-12-29T09:49:27.964Z,28.60
2018-12-29T09:50:27.874Z,28.40
2018-12-29T09:51:27.787Z,28.00
2018-12-29T09:52:27.713Z,27.70
2018-12-29T09:53:27.629Z,28.10
2018-12-29T09:54:27.538Z,27.60
2018-12-29T09:55:27.450Z,29.40
2018-12-29T09:56:27.363Z,27.90
2018-12-29T09:57:27.288Z,27.60
2018-12-29T09:58:27.213Z,28.30
2018-12-29T09:59:27.118Z,28.00
2018-12-29T10:00:27.026Z,27.60
2018-12-29T10:01:26.942Z,28.20
2018-12-29T10:02:26.853Z,28.30
2018-12-29T10:03:26.776Z,28.90
2018-12-29T10:04:26.693Z,26.90
2018-12-29T10:05:26.603Z,28.40
2018-12-29T10:06:26.514Z,28.20
2018-12-29T10:07:26.439Z,27.10
2018-12-29T10:08:26.351Z,28.50
2018-12-29T10:09:26.264Z,28.20
2018-12-29T10:10:26.176Z,27.80
2018-12-29T10:11:26.091Z,26.80
2018-12-29T10:12:26.015Z,27.40
2018-12-29T10:13:25.927Z,27.30
2018-12-29T10:14:25.839Z,26.90
2018-12-29T10:15:25.752Z,26.60
2018-12-29T10:16:25.677Z,26.70
2018-12-29T10:17:27.152Z,25.90
2018-12-29T10:18:25.514Z,25.50
2018-12-29T10:19:25.416Z,26.30
2018-12-29T10:20:25.329Z,24.90
2018-12-29T10:21:25.252Z,25.90
2018-12-29T10:22:25.165Z,25.10
2018-12-29T10:23:25.078Z,26.60
2018-12-29T10:24:24.995Z,25.70
2018-12-29T10:25:24.915Z,26.50
2018-12-29T10:26:24.828Z,26.60
2018-12-29T10:27:24.742Z,25.90
2018-12-29T10:28:24.658Z,25.30
2018-12-29T10:29:24.579Z,26.70
2018-12-29T10:30:24.493Z,25.70
2018-12-29T10:31:24.403Z,27.90
2018-12-29T10:32:24.318Z,26.50
2018-12-29T10:33:24.230Z,26.40
2018-12-29T10:34:24.154Z,28.00
2018-12-29T10:35:24.069Z,26.50
2018-12-29T10:36:23.979Z,25.90
2018-12-29T10:37:23.893Z,27.20
2018-12-29T10:38:23.817Z,26.50
2018-12-29T10:39:23.979Z,25.90
2018-12-29T10:40:23.642Z,25.30
2018-12-29T10:41:23.556Z,26.90
2018-12-29T10:42:23.480Z,26.80
2018-12-29T10:43:23.393Z,26.80
2018-12-29T10:44:23.305Z,26.30
2018-12-29T10:45:23.219Z,25.70
2018-12-29T10:46:23.131Z,28.00
2018-12-29T10:47:23.056Z,27.90
2018-12-29T10:48:22.969Z,27.90
2018-12-29T10:49:22.881Z,27.10
2018-12-29T10:50:22.793Z,27.60
2018-12-29T10:51:22.719Z,27.20
2018-12-29T10:52:22.630Z,26.90
2018-12-29T10:53:22.544Z,26.70
2018-12-29T10:54:22.456Z,26.60
2018-12-29T10:55:22.381Z,26.80
2018-12-29T10:56:22.301Z,26.10
2018-12-29T10:57:22.207Z,24.60
2018-12-29T10:58:22.119Z,24.50
2018-12-29T10:59:22.044Z,26.20
2018-12-29T11:00:21.970Z,23.90
2018-12-29T11:01:21.869Z,24.40
2018-12-29T11:02:21.781Z,25.30
2018-12-29T11:03:21.718Z,25.00
2018-12-29T11:04:21.652Z,24.90
2018-12-29T11:05:21.532Z,24.50
2018-12-29T11:06:21.449Z,25.40
2018-12-29T11:07:21.359Z,24.70
2018-12-29T11:08:21.283Z,24.40
2018-12-29T11:09:21.196Z,25.60
2018-12-29T11:10:21.107Z,24.00
2018-12-29T11:11:21.021Z,24.70
2018-12-29T11:12:20.945Z,25.00
2018-12-29T11:13:20.860Z,23.50
2018-12-29T11:14:20.773Z,24.20
2018-12-29T11:15:20.696Z,23.80
2018-12-29T11:16:20.615Z,24.80
2018-12-29T11:17:20.522Z,24.60
2018-12-29T11:18:20.435Z,25.30
2018-12-29T11:19:20.347Z,24.00
2018-12-29T11:20:20.271Z,24.40
2018-12-29T11:21:20.184Z,23.90
2018-12-29T11:22:20.097Z,25.80
2018-12-29T11:23:20.011Z,25.30
2018-12-29T11:24:19.947Z,25.30
2018-12-29T11:25:19.848Z,26.80
2018-12-29T11:26:19.759Z,25.20
2018-12-29T11:27:19.679Z,26.00
2018-12-29T11:28:19.597Z,26.30
2018-12-29T11:29:19.774Z,27.10
2018-12-29T11:30:19.424Z,27.10
2018-12-29T11:31:19.348Z,25.50
2018-12-29T11:32:19.260Z,27.10
2018-12-29T11:33:19.179Z,26.70
2018-12-29T11:34:19.086Z,27.50
2018-12-29T11:35:18.998Z,28.10
2018-12-29T11:36:18.925Z,28.80
2018-12-29T11:37:18.835Z,26.30
2018-12-29T11:38:18.752Z,26.70
2018-12-29T11:39:18.662Z,26.30
2018-12-29T11:40:18.586Z,28.10
2018-12-29T11:41:18.499Z,25.70
2018-12-29T11:42:18.412Z,26.70
2018-12-29T11:43:18.342Z,26.60
2018-12-29T11:44:18.250Z,26.30
2018-12-29T11:45:18.162Z,27.00
2018-12-29T11:46:18.075Z,27.30
2018-12-29T11:47:18.001Z,26.60
2018-12-29T11:48:17.912Z,26.80
2018-12-29T11:49:18.266Z,26.30
2018-12-29T11:50:17.737Z,27.60
2018-12-29T11:51:17.663Z,26.30
2018-12-29T11:52:17.576Z,27.60
2018-12-29T11:53:17.487Z,28.10
2018-12-29T11:54:17.400Z,27.50
2018-12-29T11:55:17.330Z,27.30
2018-12-29T11:56:17.238Z,27.80
2018-12-29T11:57:17.151Z,28.80
2018-12-29T11:58:17.065Z,27.90
2018-12-29T11:59:17.288Z,27.30
2018-12-29T12:00:16.902Z,27.70
2018-12-29T12:01:16.814Z,27.30
2018-12-29T12:02:24.213Z,27.80
2018-12-29T12:03:16.653Z,27.80
2018-12-29T12:04:16.813Z,26.90
2018-12-29T12:05:16.478Z,27.80
2018-12-29T12:06:16.401Z,27.20
2018-12-29T12:07:16.313Z,26.90
2018-12-29T12:08:16.231Z,26.70
2018-12-29T12:09:16.151Z,27.20
2018-12-29T12:10:16.064Z,26.90
2018-12-29T12:11:15.978Z,27.20
2018-12-29T12:12:15.890Z,28.40
2018-12-29T12:13:15.814Z,27.20
2018-12-29T12:14:15.728Z,27.60
2018-12-29T12:15:15.641Z,25.50
2018-12-29T12:16:15.564Z,26.50
2018-12-29T12:17:15.479Z,26.90
2018-12-29T12:18:16.531Z,26.60
2018-12-29T12:19:15.302Z,26.20
2018-12-29T12:20:15.217Z,25.90
2018-12-29T12:21:15.140Z,25.50
2018-12-29T12:22:15.054Z,26.10
2018-12-29T12:23:14.965Z,25.30
2018-12-29T12:24:14.905Z,24.50
2018-12-29T12:25:14.803Z,24.10
2018-12-29T12:26:14.715Z,25.00
2018-12-29T12:27:14.628Z,25.10
2018-12-29T12:28:14.554Z,24.60
2018-12-29T12:29:14.478Z,24.40
2018-12-29T12:30:14.380Z,25.00
2018-12-29T12:31:14.291Z,24.00
2018-12-29T12:32:14.219Z,25.60
2018-12-29T12:33:14.130Z,25.40
2018-12-29T12:34:14.041Z,26.00
2018-12-29T12:35:13.966Z,25.70
2018-12-29T12:36:13.880Z,25.80
2018-12-29T12:37:13.793Z,25.10
2018-12-29T12:38:13.705Z,25.40
2018-12-29T12:39:13.880Z,24.40
2018-12-29T12:40:13.543Z,24.00
2018-12-29T12:41:13.456Z,24.50
2018-12-29T12:42:13.367Z,23.10
2018-12-29T12:43:13.293Z,24.60
2018-12-29T12:44:13.205Z,23.00
2018-12-29T12:45:13.117Z,23.50
2018-12-29T12:46:13.033Z,24.40
2018-12-29T12:47:12.956Z,24.80
2018-12-29T12:48:12.868Z,24.60
2018-12-29T12:49:12.781Z,24.00
2018-12-29T12:50:12.709Z,24.50
2018-12-29T12:51:12.618Z,24.10